Terminal Aerodrome Forecast
Issued by NWS Wilmington, NC

Home | Current Version | Previous Version | Text Only | Print | Product List | Glossary On
Versions: 1 2 3 4 5 6 7 8 9 10 11 12 13 14 15
000
FTUS42 KILM 280522
TAFILM
TAF
KILM 280522Z 2806/2906 05003KT P6SM SCT020 SCT060 SCT150
      TEMPO 2809/2811 5SM BR SCT010
     FM281400 09007KT P6SM SCT020 SCT050 SCT130
     FM282000 10008KT P6SM VCTS SCT045CB=

USA.gov is the U.S. government's official web portal to all federal, state and local government web resources and services.